Time;durP1;ratioP1;P1;durP2;ratioP2;P2;SDS_P1;SDS_P2;PMS_P1;PMS_P2;Temp;Humidity;BMP_temperature;BMP_pressure;BME280_temperature;BME280_humidity;BME280_pressure;Samples;Min_cycle;Max_cycle;Signal;HPM_P1;HPM_P2
2022/08/18 00:02:08;;;;;;;64.90;54.95;;;;;;;18.76;100.00;101191.13;5013697;28;20520;-68
2022/08/18 00:04:37;;;;;;;62.90;53.10;;;;;;;18.75;100.00;101200.56;5021149;28;20103;-67
2022/08/18 00:07:04;;;;;;;64.60;51.97;;;;;;;18.75;100.00;101195.84;5010946;28;20033;-68
2022/08/18 00:09:30;;;;;;;64.47;51.78;;;;;;;18.76;100.00;101194.75;5012585;28;20041;-68
2022/08/18 00:11:56;;;;;;;60.35;52.47;;;;;;;18.77;100.00;101201.16;5005515;28;20029;-67
2022/08/18 00:14:21;;;;;;;65.65;52.20;;;;;;;18.76;100.00;101205.06;5006624;28;20026;-68
2022/08/18 00:16:47;;;;;;;62.38;50.83;;;;;;;18.74;100.00;101204.47;5005800;28;20040;-67
2022/08/18 00:19:12;;;;;;;66.80;53.35;;;;;;;18.73;100.00;101191.69;5005553;28;20500;-68
2022/08/18 00:21:37;;;;;;;61.03;51.10;;;;;;;18.72;100.00;101190.84;5003510;28;20057;-68
2022/08/18 00:24:03;;;;;;;63.92;51.78;;;;;;;18.73;100.00;101192.50;5005524;28;20621;-67
2022/08/18 00:26:29;;;;;;;62.70;51.28;;;;;;;18.74;100.00;101196.13;5020482;28;20037;-68
2022/08/18 00:28:55;;;;;;;62.33;49.58;;;;;;;18.74;100.00;101196.13;5025481;28;20083;-68
2022/08/18 00:31:20;;;;;;;59.38;49.75;;;;;;;18.71;100.00;101202.25;5025374;28;20040;-67
2022/08/18 00:33:45;;;;;;;62.13;49.67;;;;;;;18.71;100.00;101210.59;5025856;28;20029;-67
2022/08/18 00:36:11;;;;;;;58.22;49.65;;;;;;;18.73;100.00;101220.34;5024113;28;20128;-67
2022/08/18 00:38:37;;;;;;;56.35;47.90;;;;;;;18.71;100.00;101221.75;5025307;28;20076;-68
2022/08/18 00:41:03;;;;;;;57.50;48.08;;;;;;;18.73;100.00;101216.72;5025357;28;20504;-67
2022/08/18 00:43:47;;;;;;;59.55;48.58;;;;;;;18.77;100.00;101221.47;5012294;28;20083;-67
2022/08/18 00:46:16;;;;;;;56.10;46.47;;;;;;;18.73;100.00;101225.06;5015408;28;20079;-67
2022/08/18 00:48:41;;;;;;;56.40;47.83;;;;;;;18.72;100.00;101215.06;5025303;28;20490;-67
2022/08/18 00:51:23;;;;;;;59.22;49.00;;;;;;;18.70;100.00;101226.44;5023907;28;20037;-67
2022/08/18 00:53:57;;;;;;;56.83;46.70;;;;;;;18.69;100.00;101232.28;5025517;28;20033;-67
2022/08/18 00:56:27;;;;;;;53.85;46.40;;;;;;;18.70;100.00;101236.75;5024999;28;20029;-67
2022/08/18 00:58:59;;;;;;;52.67;46.20;;;;;;;18.64;100.00;101227.50;5025004;28;20030;-67
2022/08/18 01:01:29;;;;;;;52.72;46.50;;;;;;;18.62;100.00;101225.03;5009567;28;20026;-67
2022/08/18 01:04:00;;;;;;;57.20;45.80;;;;;;;18.62;100.00;101222.25;5004774;28;20054;-67
2022/08/18 01:06:38;;;;;;;54.10;46.72;;;;;;;18.62;100.00;101233.38;5004029;28;20068;-67
2022/08/18 01:09:04;;;;;;;53.35;47.65;;;;;;;18.60;100.00;101234.75;5004265;28;20123;-67
2022/08/18 01:11:30;;;;;;;56.28;47.50;;;;;;;18.59;100.00;101235.84;5005093;28;20034;-67
2022/08/18 01:13:57;;;;;;;54.80;47.72;;;;;;;18.58;100.00;101228.63;5004313;28;20038;-67
2022/08/18 01:22:01;;;;;;;58.88;47.80;;;;;;;18.51;100.00;101220.56;5023233;28;20044;-67
2022/08/18 01:27:17;;;;;;;54.45;48.47;;;;;;;18.47;100.00;101215.81;5024278;28;20102;-68
2022/08/18 01:29:44;;;;;;;57.58;48.22;;;;;;;18.47;100.00;101227.75;5024722;28;20082;-67
2022/08/18 01:32:12;;;;;;;60.38;50.20;;;;;;;18.44;100.00;101230.25;5024179;28;20040;-67
2022/08/18 01:34:38;;;;;;;56.28;47.40;;;;;;;18.42;100.00;101222.19;5023087;28;20014;-67
2022/08/18 01:37:04;;;;;;;60.05;48.67;;;;;;;18.39;100.00;101223.56;5019710;28;20029;-67
2022/08/18 01:39:30;;;;;;;59.80;50.40;;;;;;;18.36;100.00;101215.78;5024600;28;20025;-67
2022/08/18 01:41:55;;;;;;;62.67;52.03;;;;;;;18.36;100.00;101218.56;5023859;28;20014;-67
2022/08/18 01:44:20;;;;;;;60.08;50.20;;;;;;;18.32;100.00;101216.59;5024598;28;20032;-67
2022/08/18 01:46:46;;;;;;;61.80;50.53;;;;;;;18.26;100.00;101218.53;5024619;28;20498;-67
2022/08/18 01:49:12;;;;;;;67.47;52.92;;;;;;;18.24;100.00;101229.06;5023913;28;20515;-67
2022/08/18 01:51:40;;;;;;;66.63;54.83;;;;;;;18.18;100.00;101219.06;5022014;28;20411;-67
2022/08/18 01:54:05;;;;;;;61.90;52.22;;;;;;;18.15;100.00;101217.66;5023466;28;20029;-67
2022/08/18 01:56:31;;;;;;;66.78;53.55;;;;;;;18.11;100.00;101222.09;5023416;28;20450;-67
2022/08/18 01:58:56;;;;;;;69.03;52.30;;;;;;;18.07;100.00;101217.34;5024244;28;20211;-67
2022/08/18 02:01:23;;;;;;;68.07;53.53;;;;;;;18.04;100.00;101217.88;5024094;28;20865;-67
2022/08/18 02:03:53;;;;;;;64.43;52.13;;;;;;;18.01;100.00;101219.28;5024657;28;20030;-67
2022/08/18 02:06:19;;;;;;;66.75;52.80;;;;;;;17.96;100.00;101210.91;5023124;28;20021;-67
2022/08/18 02:08:46;;;;;;;65.35;52.55;;;;;;;17.93;100.00;101216.16;5020832;28;20026;-67
2022/08/18 02:11:13;;;;;;;63.95;52.00;;;;;;;17.88;100.00;101219.75;5022265;28;20046;-67
2022/08/18 02:13:39;;;;;;;63.53;51.42;;;;;;;17.87;100.00;101210.59;5023477;28;20043;-67
2022/08/18 02:16:04;;;;;;;62.78;52.40;;;;;;;17.85;100.00;101200.88;5023068;28;20079;-67
2022/08/18 02:18:32;;;;;;;60.72;50.92;;;;;;;17.83;100.00;101208.63;5023667;28;20033;-67
2022/08/18 02:21:04;;;;;;;61.53;51.13;;;;;;;17.80;100.00;101211.94;5022105;28;20021;-67
2022/08/18 02:23:29;;;;;;;66.65;51.05;;;;;;;17.74;100.00;101213.88;5023863;28;20033;-67
2022/08/18 02:25:54;;;;;;;62.42;51.08;;;;;;;17.72;100.00;101213.25;5023047;28;20099;-67
2022/08/18 02:28:20;;;;;;;61.57;50.97;;;;;;;17.71;100.00;101216.31;5021282;28;20036;-67
2022/08/18 02:30:45;;;;;;;62.83;51.22;;;;;;;17.68;100.00;101214.06;5023830;28;21093;-67
2022/08/18 02:33:10;;;;;;;61.08;49.88;;;;;;;17.62;100.00;101215.97;5023390;28;20056;-67
2022/08/18 02:35:37;;;;;;;59.85;49.08;;;;;;;17.56;100.00;101214.28;5021835;28;20083;-67
2022/08/18 02:38:05;;;;;;;62.35;51.50;;;;;;;17.56;100.00;101211.50;5023701;28;20017;-67
2022/08/18 02:40:34;;;;;;;65.45;51.63;;;;;;;17.56;100.00;101212.34;5023234;28;20048;-67
2022/08/18 02:43:08;;;;;;;64.93;51.22;;;;;;;17.54;100.00;101217.34;5016707;28;20380;-67
2022/08/18 02:45:35;;;;;;;63.17;51.83;;;;;;;17.53;100.00;101217.56;5003729;28;20105;-67
2022/08/18 02:48:00;;;;;;;64.18;50.13;;;;;;;17.52;100.00;101216.75;5003632;28;20021;-67
2022/08/18 02:50:26;;;;;;;61.20;49.17;;;;;;;17.51;100.00;101217.03;5002217;28;20515;-67
2022/08/18 02:52:51;;;;;;;64.03;50.13;;;;;;;17.46;100.00;101212.28;5003372;28;20311;-67
2022/08/18 02:55:16;;;;;;;61.03;49.42;;;;;;;17.43;100.00;101218.34;5003750;28;20083;-67
2022/08/18 02:57:44;;;;;;;60.63;48.25;;;;;;;17.38;100.00;101215.53;5002848;28;20032;-67
2022/08/18 03:00:14;;;;;;;55.30;46.70;;;;;;;17.30;100.00;101221.59;5002972;28;20040;-67
2022/08/18 03:02:40;;;;;;;57.47;49.72;;;;;;;17.26;100.00;101215.75;5003390;28;20022;-67
2022/08/18 03:05:06;;;;;;;64.18;49.80;;;;;;;17.25;100.00;101213.25;5002592;28;20050;-67
2022/08/18 03:07:32;;;;;;;63.85;49.22;;;;;;;17.24;100.00;101222.69;5002230;28;20189;-68
2022/08/18 03:09:57;;;;;;;54.58;45.25;;;;;;;17.21;100.00;101231.53;5002841;28;20050;-67
2022/08/18 03:12:23;;;;;;;56.50;47.33;;;;;;;17.21;100.00;101226.81;5003245;28;20038;-68
2022/08/18 03:14:49;;;;;;;58.83;48.50;;;;;;;17.22;100.00;101220.16;5003763;28;20099;-67
2022/08/18 03:17:14;;;;;;;58.40;48.08;;;;;;;17.23;100.00;101221.81;5022587;28;20059;-67
2022/08/18 03:19:39;;;;;;;61.15;48.67;;;;;;;17.22;100.00;101227.63;5002764;28;20380;-67
2022/08/18 03:22:07;;;;;;;57.05;47.03;;;;;;;17.17;100.00;101233.97;5001251;28;20045;-68
2022/08/18 03:24:33;;;;;;;;;;;;;;;17.25;100.00;101227.94;5003699;28;20526;-67
2022/08/18 03:26:59;;;;;;;53.97;44.80;;;;;;;17.13;100.00;101235.59;5002654;28;19916;-68
2022/08/18 03:29:25;;;;;;;61.30;45.45;;;;;;;17.09;100.00;101238.09;5002492;28;20624;-67
2022/08/18 03:31:50;;;;;;;53.90;45.38;;;;;;;17.03;100.00;101241.06;5003192;28;20116;-67
2022/08/18 03:34:20;;;;;;;54.83;44.63;;;;;;;17.01;100.00;101244.13;5003161;28;20095;-67
2022/08/18 03:36:48;;;;;;;55.33;45.50;;;;;;;17.00;100.00;101247.16;5002255;28;20128;-68
2022/08/18 03:39:14;;;;;;;;;;;;;;;17.11;100.00;101244.22;5007238;28;20430;-67
2022/08/18 03:41:42;;;;;;;49.90;41.28;;;;;;;16.97;100.00;101247.69;5007010;28;20050;-67
2022/08/18 03:44:09;;;;;;;46.95;40.05;;;;;;;16.88;100.00;101252.03;5006726;28;20033;-68
2022/08/18 03:46:34;;;;;;;45.22;39.80;;;;;;;16.80;100.00;101250.59;5006844;28;20026;-67
2022/08/18 03:49:00;;;;;;;49.97;40.05;;;;;;;16.74;100.00;101254.41;5006924;28;20160;-68
2022/08/18 03:51:28;;;;;;;48.13;40.03;;;;;;;16.68;100.00;101253.50;5005273;28;20025;-68
2022/08/18 03:53:55;;;;;;;;;;;;;;;16.79;100.00;101246.16;5008134;28;20029;-68
2022/08/18 03:56:23;;;;;;;75.80;42.67;;;;;;;16.63;100.00;101245.13;5006319;28;20394;-67
2022/08/18 03:58:52;;;;;;;57.45;42.40;;;;;;;16.60;100.00;101249.25;5006697;28;20029;-68
2022/08/18 04:01:21;;;;;;;50.83;40.88;;;;;;;16.61;100.00;101256.47;5006944;28;20030;-67
2022/08/18 04:03:49;;;;;;;48.58;40.78;;;;;;;16.61;100.00;101250.91;5007132;28;20105;-67
2022/08/18 04:06:21;;;;;;;48.92;40.78;;;;;;;16.70;100.00;101242.13;5015888;28;20037;-67
2022/08/18 04:08:50;;;;;;;46.70;40.55;;;;;;;16.76;100.00;101239.16;5020427;28;20026;-67
2022/08/18 04:11:15;;;;;;;47.92;40.78;;;;;;;16.82;100.00;101240.06;5026047;28;20863;-67
2022/08/18 04:13:41;;;;;;;44.75;39.85;;;;;;;16.78;100.00;101236.16;5026034;28;20104;-67
2022/08/18 04:16:07;;;;;;;44.03;38.35;;;;;;;16.74;100.00;101235.84;5025651;28;20407;-67
2022/08/18 04:18:32;;;;;;;47.78;40.55;;;;;;;16.75;100.00;101239.44;5026195;28;20080;-67
2022/08/18 04:21:03;;;;;;;46.60;40.72;;;;;;;16.75;100.00;101247.75;5024022;28;20083;-67
2022/08/18 04:23:28;;;;;;;44.22;38.45;;;;;;;16.71;100.00;101239.13;5026183;28;20577;-67
2022/08/18 04:25:56;;;;;;;46.88;40.33;;;;;;;16.73;100.00;101238.88;5025547;28;20105;-68
2022/08/18 04:28:22;;;;;;;50.38;40.38;;;;;;;16.76;100.00;101244.72;5023619;28;20477;-68
2022/08/18 04:30:47;;;;;;;44.50;39.38;;;;;;;16.78;100.00;101245.31;5026003;28;20027;-68
2022/08/18 04:33:12;;;;;;;57.67;44.08;;;;;;;16.83;100.00;101247.31;5026020;28;20025;-67
2022/08/18 04:35:37;;;;;;;48.22;42.60;;;;;;;16.81;100.00;101242.00;5024250;28;20084;-67
2022/08/18 04:38:03;;;;;;;53.42;44.20;;;;;;;16.81;100.00;101236.44;5025273;28;20052;-67
2022/08/18 04:40:28;;;;;;;55.08;43.95;;;;;;;16.83;100.00;101241.75;5025443;28;20030;-67
2022/08/18 04:42:53;;;;;;;54.38;43.35;;;;;;;16.80;100.00;101242.25;5024622;28;20025;-68
2022/08/18 04:45:19;;;;;;;51.22;42.28;;;;;;;16.76;100.00;101239.16;5024603;28;20033;-68
2022/08/18 04:47:44;;;;;;;49.13;40.72;;;;;;;16.75;100.00;101247.75;5025735;28;20026;-67
2022/08/18 04:50:10;;;;;;;49.50;41.08;;;;;;;16.72;100.00;101248.28;5024119;28;20348;-66
2022/08/18 04:55:19;;;;;;;56.33;44.00;;;;;;;16.70;100.00;101264.31;5025551;28;20523;-67
2022/08/18 04:57:44;;;;;;;55.38;45.08;;;;;;;16.72;100.00;101254.66;5007768;28;20023;-68
2022/08/18 05:00:11;;;;;;;59.83;46.22;;;;;;;16.73;100.00;101258.28;5023021;28;20150;-67
2022/08/18 05:02:37;;;;;;;60.28;46.47;;;;;;;16.74;100.00;101260.78;5025072;28;20727;-67
2022/08/18 05:05:03;;;;;;;63.70;48.00;;;;;;;16.76;100.00;101258.59;5024427;28;20164;-67
2022/08/18 05:07:29;;;;;;;60.35;46.97;;;;;;;16.73;100.00;101256.34;5024453;28;20069;-68
2022/08/18 05:09:54;;;;;;;58.00;45.33;;;;;;;16.76;100.00;101263.31;5024971;28;20117;-67
2022/08/18 05:12:20;;;;;;;66.93;49.45;;;;;;;16.81;100.00;101253.09;5025531;28;20045;-68
2022/08/18 05:14:46;;;;;;;61.65;49.63;;;;;;;16.83;100.00;101261.16;5025096;28;20018;-67
2022/08/18 05:17:14;;;;;;;64.65;48.80;;;;;;;16.83;100.00;101250.06;5023138;28;20120;-68
2022/08/18 05:19:42;;;;;;;;;;;;;;;16.94;100.00;101259.31;5025535;28;20140;-68
2022/08/18 05:22:08;;;;;;;65.15;47.47;;;;;;;16.86;100.00;101257.84;5023123;28;20275;-68
2022/08/18 05:24:34;;;;;;;64.70;48.47;;;;;;;16.90;100.00;101272.03;5024792;28;20022;-68
2022/08/18 05:27:00;;;;;;;64.50;48.97;;;;;;;16.90;100.00;101267.34;5024718;28;20034;-68
2022/08/18 05:29:25;;;;;;;64.05;48.20;;;;;;;16.95;100.00;101261.84;5024812;28;20030;-68
2022/08/18 05:31:52;;;;;;;63.83;48.40;;;;;;;16.98;100.00;101266.00;5023936;28;20032;-68
2022/08/18 05:34:20;;;;;;;61.63;48.90;;;;;;;17.00;100.00;101270.19;5025179;28;20025;-68
2022/08/18 05:36:48;;;;;;;62.95;47.92;;;;;;;17.05;100.00;101269.41;5005701;28;20030;-68
2022/08/18 05:39:37;;;;;;;63.45;48.45;;;;;;;17.09;100.00;101268.63;5004387;28;20389;-68
2022/08/18 05:42:10;;;;;;;63.97;50.05;;;;;;;17.15;100.00;101266.72;5004440;28;20034;-67
2022/08/18 05:44:43;;;;;;;65.35;49.40;;;;;;;17.18;100.00;101268.13;5004672;28;20164;-68
2022/08/18 05:47:23;;;;;;;59.03;48.47;;;;;;;17.20;100.00;101274.25;5004722;28;20080;-68
2022/08/18 05:49:49;;;;;;;66.10;50.38;;;;;;;17.24;100.00;101273.47;5003867;28;20532;-67
2022/08/18 05:52:25;;;;;;;67.25;51.00;;;;;;;17.31;100.00;101282.41;5004043;28;20029;-67
2022/08/18 05:57:49;;;;;;;65.53;50.58;;;;;;;17.36;100.00;101274.13;5004827;28;20089;-68
2022/08/18 06:00:14;;;;;;;65.63;49.58;;;;;;;17.38;100.00;101282.16;5003009;28;20108;-67
2022/08/18 06:03:12;;;;;;;58.88;47.50;;;;;;;17.44;100.00;101289.47;5004372;28;20820;-68
2022/08/18 06:05:42;;;;;;;;;;;;;;;17.55;100.00;101288.44;5003331;28;20025;-67
2022/08/18 06:08:10;;;;;;;59.83;46.22;;;;;;;17.53;100.00;101290.63;5004008;28;19920;-68
2022/08/18 06:10:37;;;;;;;60.03;48.67;;;;;;;17.63;100.00;101287.09;5003352;28;20042;-68
2022/08/18 06:13:08;;;;;;;60.13;48.45;;;;;;;17.74;100.00;101288.88;5004072;28;20614;-68
2022/08/18 06:16:18;;;;;;;57.28;46.92;;;;;;;17.85;100.00;101292.56;5004051;28;20046;-68
2022/08/18 06:18:58;;;;;;;59.13;47.75;;;;;;;17.89;100.00;101294.53;5004454;28;20389;-67
2022/08/18 06:21:41;;;;;;;60.97;50.70;;;;;;;17.93;100.00;101297.59;5002828;28;20026;-68
2022/08/18 06:24:17;;;;;;;59.67;47.97;;;;;;;17.99;100.00;101290.94;5003884;28;20068;-68
2022/08/18 06:26:48;;;;;;;64.78;50.38;;;;;;;18.09;100.00;101292.94;5003891;28;20026;-68
2022/08/18 06:29:32;;;;;;;61.20;48.42;;;;;;;18.15;100.00;101292.72;5009612;28;20728;-67
2022/08/18 06:32:10;;;;;;;61.47;47.13;;;;;;;18.17;100.00;101288.84;5023178;28;20388;-68
2022/08/18 06:34:59;;;;;;;65.13;48.17;;;;;;;18.25;100.00;101293.84;5023739;28;20025;-68
2022/08/18 06:38:37;;;;;;;63.83;48.42;;;;;;;18.31;100.00;101292.78;5003200;28;20026;-68
2022/08/18 06:40:20;;;;;;;59.63;46.00;;;;;;;18.33;100.00;101299.75;5003065;28;20048;-68
2022/08/18 06:42:46;;;;;;;54.53;46.40;;;;;;;18.32;100.00;101303.63;5004259;28;20038;-70
2022/08/18 06:45:17;;;;;;;56.60;44.00;;;;;;;18.30;100.00;101300.31;5003160;28;20032;-70
2022/08/18 06:47:58;;;;;;;55.45;45.33;;;;;;;18.34;100.00;101306.13;5003009;28;20037;-70
2022/08/18 06:50:30;;;;;;;57.17;44.72;;;;;;;18.35;100.00;101308.66;5002316;28;20518;-70
2022/08/18 06:53:01;;;;;;;49.00;40.60;;;;;;;18.40;100.00;101299.50;5003037;28;20125;-69
2022/08/18 06:55:48;;;;;;;50.53;42.97;;;;;;;18.56;100.00;101305.97;5003461;28;20030;-70
2022/08/18 06:58:16;;;;;;;46.03;38.50;;;;;;;18.55;100.00;101309.84;5002930;28;20025;-70
2022/08/18 07:00:53;;;;;;;50.55;40.75;;;;;;;18.60;100.00;101307.06;5003364;28;20030;-69
2022/08/18 07:03:38;;;;;;;45.83;39.90;;;;;;;18.66;100.00;101306.84;5003430;28;20033;-69
2022/08/18 07:06:12;;;;;;;40.47;36.10;;;;;;;18.78;100.00;101314.13;5009630;28;20052;-69
2022/08/18 07:08:40;;;;;;;48.67;37.50;;;;;;;19.14;100.00;101310.28;5022726;28;20052;-70
2022/08/18 07:11:17;;;;;;;40.97;35.85;;;;;;;19.74;100.00;101309.78;5021866;28;20042;-69
2022/08/18 07:13:46;;;;;;;37.55;32.90;;;;;;;20.39;98.67;101308.75;5022881;28;20029;-69
2022/08/18 07:16:15;;;;;;;38.50;34.03;;;;;;;20.42;95.07;101307.31;5022193;28;20025;-70
2022/08/18 07:18:40;;;;;;;41.85;33.90;;;;;;;20.19;96.24;101315.25;5022681;28;20034;-69
2022/08/18 07:21:06;;;;;;;40.00;34.90;;;;;;;19.99;96.80;101314.47;5021365;28;20029;-68
2022/08/18 07:23:37;;;;;;;39.97;35.03;;;;;;;19.88;97.06;101314.47;5005273;28;20132;-68
2022/08/18 07:26:10;;;;;;;40.22;35.40;;;;;;;19.85;97.79;101311.41;5013262;28;20025;-68
2022/08/18 07:28:39;;;;;;;38.30;33.42;;;;;;;19.85;98.06;101317.81;5022611;28;20056;-68
2022/08/18 07:31:13;;;;;;;39.08;34.50;;;;;;;19.91;99.37;101313.06;5022555;28;20495;-67
2022/08/18 07:33:40;;;;;;;39.97;33.17;;;;;;;19.90;98.06;101314.19;5022848;28;20639;-68
2022/08/18 07:36:08;;;;;;;38.90;32.35;;;;;;;19.90;98.47;101305.81;5020645;28;20120;-68
2022/08/18 07:38:55;;;;;;;36.78;32.10;;;;;;;19.92;99.02;101301.66;5020562;28;20063;-68
2022/08/18 07:41:26;;;;;;;35.40;31.20;;;;;;;19.90;97.62;101316.97;5002483;28;20045;-67
2022/08/18 07:44:03;;;;;;;33.55;29.83;;;;;;;19.96;98.28;101313.06;5002802;28;20428;-68
2022/08/18 07:46:44;;;;;;;37.10;29.17;;;;;;;19.94;97.46;101318.09;5002934;28;20109;-67
2022/08/18 07:49:18;;;;;;;35.72;30.38;;;;;;;19.97;97.13;101311.94;5003109;28;20116;-67
2022/08/18 07:52:23;;;;;;;32.10;28.42;;;;;;;20.17;97.64;101317.50;5001776;28;20034;-67
2022/08/18 07:54:54;;;;;;;33.05;29.45;;;;;;;20.31;97.86;101322.44;5003017;28;20033;-68
2022/08/18 07:57:49;;;;;;;33.75;30.17;;;;;;;20.47;96.75;101321.28;5016835;28;20060;-68
2022/08/18 08:00:22;;;;;;;25.60;21.55;;;;;;;20.44;93.41;101311.50;5021454;28;20073;-67
2022/08/18 08:03:13;;;;;;;28.65;24.25;;;;;;;20.46;95.28;101309.28;5022922;28;20026;-68
2022/08/18 08:06:06;;;;;;;26.23;23.35;;;;;;;20.57;95.45;101312.88;5021209;28;20025;-67
2022/08/18 08:08:41;;;;;;;26.92;22.73;;;;;;;20.72;93.84;101318.38;5008189;28;20124;-67
2022/08/18 08:11:18;;;;;;;26.35;23.40;;;;;;;21.05;92.91;101318.75;5021931;28;20407;-68
2022/08/18 08:13:50;;;;;;;24.27;21.60;;;;;;;21.28;92.35;101319.13;5021486;28;20116;-68
2022/08/18 08:16:27;;;;;;;24.67;19.38;;;;;;;21.44;89.20;101315.13;5021528;28;20296;-67
2022/08/18 08:18:58;;;;;;;27.00;20.65;;;;;;;21.66;90.04;101314.66;5022059;28;20785;-67
2022/08/18 08:21:30;;;;;;;23.15;19.77;;;;;;;21.87;89.33;101326.50;5020574;28;20455;-67
2022/08/18 08:24:11;;;;;;;22.58;19.50;;;;;;;21.89;88.00;101318.63;5024827;28;20030;-67
2022/08/18 08:26:43;;;;;;;22.65;19.50;;;;;;;21.92;84.86;101316.09;5025211;28;20026;-67
2022/08/18 08:29:41;;;;;;;16.58;13.68;;;;;;;22.16;86.43;101318.09;5025688;28;20476;-66
2022/08/18 08:32:26;;;;;;;15.18;12.73;;;;;;;22.31;85.48;101326.31;5010458;28;20052;-67
2022/08/18 08:34:58;;;;;;;15.38;12.57;;;;;;;22.16;82.99;101329.28;5005171;28;20034;-67
2022/08/18 08:37:32;;;;;;;13.45;12.05;;;;;;;21.98;84.73;101334.47;5005018;28;20025;-67
2022/08/18 08:40:11;;;;;;;15.00;12.50;;;;;;;21.80;83.96;101328.81;5005741;28;20018;-67
2022/08/18 08:42:46;;;;;;;17.27;13.05;;;;;;;21.63;85.64;101326.44;5005634;28;20034;-67
2022/08/18 08:45:19;;;;;;;15.73;14.05;;;;;;;21.65;86.24;101335.38;5005585;28;20040;-67
2022/08/18 08:47:57;;;;;;;13.77;12.32;;;;;;;21.72;82.03;101327.47;5005991;28;20030;-67
2022/08/18 08:50:27;;;;;;;14.27;12.77;;;;;;;21.82;83.16;101334.94;5021376;28;20021;-66
2022/08/18 08:53:04;;;;;;;13.65;12.25;;;;;;;21.90;84.42;101329.53;5007439;28;20079;-67
2022/08/18 08:55:33;;;;;;;13.68;11.00;;;;;;;21.94;81.11;101338.97;5025278;28;20029;-67
2022/08/18 08:58:13;;;;;;;14.50;11.98;;;;;;;22.01;81.57;101344.25;5025390;28;20128;-67
2022/08/18 09:00:40;;;;;;;14.07;11.98;;;;;;;22.27;83.90;101337.28;5025165;28;20060;-67
2022/08/18 09:03:32;;;;;;;14.80;12.05;;;;;;;22.49;82.81;101341.47;5025183;28;20026;-68
2022/08/18 09:06:15;;;;;;;12.95;11.63;;;;;;;22.86;81.75;101332.34;5008585;28;20034;-68
2022/08/18 09:08:50;;;;;;;12.65;10.43;;;;;;;23.35;77.13;101331.03;5005875;28;20439;-68
2022/08/18 09:12:00;;;;;;;11.93;9.00;;;;;;;23.45;75.72;101333.69;5004850;28;20046;-67
2022/08/18 09:14:56;;;;;;;13.48;10.82;;;;;;;23.16;75.40;101335.81;4994654;28;20473;-67
2022/08/18 09:17:40;;;;;;;12.77;10.75;;;;;;;23.16;75.49;101347.03;5004804;28;20140;-67
2022/08/18 09:20:29;;;;;;;12.73;11.05;;;;;;;23.17;75.42;101341.16;5004193;28;20018;-67
2022/08/18 09:23:09;;;;;;;13.80;12.00;;;;;;;22.91;76.09;101342.63;5005039;28;20096;-67
2022/08/18 09:25:38;;;;;;;12.60;10.38;;;;;;;22.70;75.41;101340.09;5005131;28;20033;-68
2022/08/18 09:28:18;;;;;;;15.30;10.75;;;;;;;22.74;78.90;101346.75;5004562;28;20044;-68
2022/08/18 09:30:46;;;;;;;12.88;10.88;;;;;;;22.53;74.93;101334.16;5004714;28;20076;-67
2022/08/18 09:33:35;;;;;;;14.32;10.88;;;;;;;22.46;75.32;101340.13;5004383;28;20017;-68
2022/08/18 09:36:14;;;;;;;12.98;11.57;;;;;;;22.49;75.32;101335.88;5002664;28;20033;-68
2022/08/18 09:42:13;;;;;;;13.40;10.73;;;;;;;22.90;74.15;101329.78;4982353;28;20458;-67
2022/08/18 09:44:47;;;;;;;14.40;10.98;;;;;;;24.42;71.25;101329.13;5004559;28;20034;-68
2022/08/18 09:47:23;;;;;;;12.95;11.05;;;;;;;24.47;70.86;101331.00;5004418;28;20029;-67
2022/08/18 09:49:51;;;;;;;13.15;11.73;;;;;;;23.92;68.31;101328.94;5004439;28;20057;-67
2022/08/18 09:52:19;;;;;;;12.93;11.52;;;;;;;23.67;72.02;101327.47;5004356;28;20022;-67
2022/08/18 09:54:52;;;;;;;13.60;11.30;;;;;;;23.44;71.95;101331.19;5012240;28;20022;-68
2022/08/18 09:57:23;;;;;;;13.30;11.40;;;;;;;23.17;73.12;101318.72;5011223;28;20660;-68
2022/08/18 09:59:53;;;;;;;15.00;11.95;;;;;;;23.04;76.32;101331.53;5004724;28;20436;-67
2022/08/18 10:02:27;;;;;;;13.20;11.88;;;;;;;22.99;73.86;101339.16;5004676;28;20545;-67
2022/08/18 10:05:19;;;;;;;16.38;14.77;;;;;;;23.05;74.49;101343.56;5003128;28;20086;-68
2022/08/18 10:07:54;;;;;;;16.83;15.23;;;;;;;23.07;75.33;101332.91;4993657;28;20065;-67
2022/08/18 10:10:27;;;;;;;17.98;14.70;;;;;;;25.05;70.67;101328.31;5004519;28;20124;-67
2022/08/18 10:13:01;;;;;;;17.67;15.70;;;;;;;27.12;59.47;101319.31;5004010;28;20030;-67
2022/08/18 10:15:45;;;;;;;16.60;14.95;;;;;;;28.85;54.86;101314.31;5003607;28;20041;-67
2022/08/18 10:18:48;;;;;;;16.25;14.57;;;;;;;28.76;55.90;101322.00;5003798;28;20529;-67
2022/08/18 10:21:17;;;;;;;16.85;15.15;;;;;;;29.05;50.65;101313.53;4990015;28;20397;-67
2022/08/18 10:23:49;;;;;;;16.98;15.27;;;;;;;29.89;47.96;101313.38;5003797;28;20052;-67
2022/08/18 10:26:29;;;;;;;14.77;13.27;;;;;;;28.91;53.77;101315.75;5003844;28;20033;-67
2022/08/18 10:28:59;;;;;;;15.25;13.75;;;;;;;27.73;53.53;101316.47;5003312;28;20033;-67
2022/08/18 10:31:26;;;;;;;16.55;14.82;;;;;;;26.69;57.87;101310.75;5004178;28;20041;-67
2022/08/18 10:33:59;;;;;;;17.52;15.90;;;;;;;26.14;58.44;101319.66;5003523;28;20068;-67
2022/08/18 10:36:55;;;;;;;18.40;16.63;;;;;;;27.82;59.68;101305.13;5002491;28;20088;-67
2022/08/18 10:39:26;;;;;;;18.00;16.27;;;;;;;28.61;51.14;101307.31;5004021;28;20030;-67
2022/08/18 10:42:09;;;;;;;17.90;16.20;;;;;;;28.05;55.32;101300.09;5003399;28;20085;-67
2022/08/18 10:44:42;;;;;;;16.60;14.90;;;;;;;29.27;50.38;101298.19;5009895;28;20033;-68
2022/08/18 10:47:19;;;;;;;15.60;14.13;;;;;;;29.66;46.69;101308.16;5022881;28;20025;-67
2022/08/18 10:49:48;;;;;;;14.82;13.32;;;;;;;29.19;46.35;101301.91;5018466;28;20029;-67
2022/08/18 10:52:44;;;;;;;14.07;12.77;;;;;;;29.80;50.92;101313.47;5002415;28;20117;-67
2022/08/18 10:55:12;;;;;;;13.80;12.30;;;;;;;31.34;42.46;101313.72;5003080;28;20534;-67
2022/08/18 10:57:47;;;;;;;14.18;12.77;;;;;;;31.46;45.26;101310.00;5003016;28;20032;-67
2022/08/18 11:00:18;;;;;;;14.75;13.13;;;;;;;30.05;45.52;101311.53;5003174;28;20492;-67
2022/08/18 11:02:51;;;;;;;13.88;12.52;;;;;;;28.72;48.92;101301.25;5003138;28;20025;-67
2022/08/18 11:05:23;;;;;;;15.20;13.70;;;;;;;27.64;51.17;101309.97;5002234;28;20068;-67
2022/08/18 11:07:52;;;;;;;14.70;13.30;;;;;;;26.86;54.83;101310.78;4986200;28;20366;-66
2022/08/18 11:10:22;;;;;;;14.57;13.25;;;;;;;26.38;56.23;101313.63;5002974;28;20045;-67
2022/08/18 11:13:11;;;;;;;15.75;14.30;;;;;;;26.14;58.57;101308.41;5004192;28;20353;-66
2022/08/18 11:16:11;;;;;;;15.40;13.93;;;;;;;25.88;59.46;101309.13;5003069;28;20030;-67
2022/08/18 11:18:47;;;;;;;14.95;13.48;;;;;;;25.64;59.56;101294.53;5003057;28;20030;-67
2022/08/18 11:21:23;;;;;;;15.32;13.90;;;;;;;25.95;60.59;101293.75;5001775;28;20160;-67
2022/08/18 11:24:12;;;;;;;15.65;14.15;;;;;;;26.34;56.96;101282.47;5003486;28;20029;-67
2022/08/18 11:26:49;;;;;;;14.48;13.00;;;;;;;26.81;54.79;101277.13;5002907;28;20048;-67
2022/08/18 11:29:24;;;;;;;14.85;13.35;;;;;;;27.41;55.91;101270.66;5002786;28;20369;-67
2022/08/18 11:31:54;;;;;;;14.13;12.63;;;;;;;27.51;50.82;101274.31;5003225;28;20026;-67
2022/08/18 11:34:27;;;;;;;13.85;12.50;;;;;;;27.70;52.04;101260.66;5006689;28;20022;-67
2022/08/18 11:36:58;;;;;;;15.30;13.70;;;;;;;27.75;52.20;101265.31;5004133;28;20032;-67
2022/08/18 11:39:25;;;;;;;13.95;11.63;;;;;;;27.53;49.93;101266.34;5022826;28;20090;-67
2022/08/18 11:41:50;;;;;;;14.18;11.98;;;;;;;26.94;53.03;101266.88;5022631;28;20037;-67
2022/08/18 11:44:21;;;;;;;13.60;12.25;;;;;;;26.58;51.85;101264.34;5008571;28;20038;-67
2022/08/18 11:46:46;;;;;;;13.05;11.85;;;;;;;26.30;57.40;101260.91;5003459;28;20398;-67